sensor_id;sensor_type;location;lat;lon;timestamp;P1;durP1;ratioP1;P2;durP2;ratioP2
37241;SDS011;23135;51.078;12.108;2022-10-16T00:00:44;3.55;;;0.00;;
37241;SDS011;23135;51.078;12.108;2022-10-16T00:03:10;0.00;;;0.00;;
37241;SDS011;23135;51.078;12.108;2022-10-16T00:05:40;0.90;;;0.00;;
37241;SDS011;23135;51.078;12.108;2022-10-16T00:08:08;0.77;;;0.00;;
37241;SDS011;23135;51.078;12.108;2022-10-16T00:10:35;0.20;;;0.00;;
37241;SDS011;23135;51.078;12.108;2022-10-16T00:13:02;0.85;;;0.00;;
37241;SDS011;23135;51.078;12.108;2022-10-16T00:15:28;0.10;;;0.00;;
37241;SDS011;23135;51.078;12.108;2022-10-16T00:17:54;0.00;;;0.00;;
37241;SDS011;23135;51.078;12.108;2022-10-16T00:20:19;0.00;;;0.00;;
37241;SDS011;23135;51.078;12.108;2022-10-16T00:22:45;0.40;;;0.00;;
37241;SDS011;23135;51.078;12.108;2022-10-16T00:25:10;1.25;;;0.00;;
37241;SDS011;23135;51.078;12.108;2022-10-16T00:27:36;0.10;;;0.00;;
37241;SDS011;23135;51.078;12.108;2022-10-16T00:30:02;7.65;;;0.43;;
37241;SDS011;23135;51.078;12.108;2022-10-16T00:32:28;1.85;;;0.00;;
37241;SDS011;23135;51.078;12.108;2022-10-16T00:34:54;0.68;;;0.10;;
37241;SDS011;23135;51.078;12.108;2022-10-16T00:37:20;0.43;;;0.00;;
37241;SDS011;23135;51.078;12.108;2022-10-16T00:39:46;0.45;;;0.00;;
37241;SDS011;23135;51.078;12.108;2022-10-16T00:42:15;0.00;;;0.00;;
37241;SDS011;23135;51.078;12.108;2022-10-16T00:44:47;1.67;;;0.00;;
37241;SDS011;23135;51.078;12.108;2022-10-16T00:47:23;1.83;;;0.03;;
37241;SDS011;23135;51.078;12.108;2022-10-16T00:49:56;0.63;;;0.00;;
37241;SDS011;23135;51.078;12.108;2022-10-16T00:52:44;0.00;;;0.00;;
37241;SDS011;23135;51.078;12.108;2022-10-16T00:55:12;0.47;;;0.00;;
37241;SDS011;23135;51.078;12.108;2022-10-16T00:57:38;3.28;;;0.00;;
37241;SDS011;23135;51.078;12.108;2022-10-16T01:00:06;0.65;;;0.00;;
37241;SDS011;23135;51.078;12.108;2022-10-16T01:02:33;0.00;;;0.00;;
37241;SDS011;23135;51.078;12.108;2022-10-16T01:04:58;1.58;;;0.00;;
37241;SDS011;23135;51.078;12.108;2022-10-16T01:13:20;0.00;;;0.00;;
37241;SDS011;23135;51.078;12.108;2022-10-16T01:15:50;0.68;;;0.00;;
37241;SDS011;23135;51.078;12.108;2022-10-16T01:21:13;4.10;;;0.15;;
37241;SDS011;23135;51.078;12.108;2022-10-16T01:23:49;4.50;;;0.00;;
37241;SDS011;23135;51.078;12.108;2022-10-16T01:26:37;3.58;;;0.00;;
37241;SDS011;23135;51.078;12.108;2022-10-16T01:29:13;0.00;;;0.00;;
37241;SDS011;23135;51.078;12.108;2022-10-16T01:31:47;5.05;;;0.00;;
37241;SDS011;23135;51.078;12.108;2022-10-16T01:34:16;2.22;;;0.00;;
37241;SDS011;23135;51.078;12.108;2022-10-16T01:36:47;1.45;;;0.00;;
37241;SDS011;23135;51.078;12.108;2022-10-16T01:39:21;0.20;;;0.00;;
37241;SDS011;23135;51.078;12.108;2022-10-16T01:44:38;1.08;;;0.00;;
37241;SDS011;23135;51.078;12.108;2022-10-16T01:47:07;0.00;;;0.00;;
37241;SDS011;23135;51.078;12.108;2022-10-16T01:49:35;0.55;;;0.10;;
37241;SDS011;23135;51.078;12.108;2022-10-16T01:52:04;0.00;;;0.00;;
37241;SDS011;23135;51.078;12.108;2022-10-16T01:54:33;0.70;;;0.00;;
37241;SDS011;23135;51.078;12.108;2022-10-16T01:57:02;1.20;;;0.00;;
37241;SDS011;23135;51.078;12.108;2022-10-16T01:59:31;0.63;;;0.00;;
37241;SDS011;23135;51.078;12.108;2022-10-16T02:02:01;2.53;;;0.00;;
37241;SDS011;23135;51.078;12.108;2022-10-16T02:04:36;0.70;;;0.00;;
37241;SDS011;23135;51.078;12.108;2022-10-16T02:07:14;2.40;;;0.00;;
37241;SDS011;23135;51.078;12.108;2022-10-16T02:09:40;0.57;;;0.00;;
37241;SDS011;23135;51.078;12.108;2022-10-16T02:12:15;2.05;;;0.00;;
37241;SDS011;23135;51.078;12.108;2022-10-16T02:14:48;0.15;;;0.00;;
37241;SDS011;23135;51.078;12.108;2022-10-16T02:17:15;0.10;;;0.00;;
37241;SDS011;23135;51.078;12.108;2022-10-16T02:19:45;0.68;;;0.00;;
37241;SDS011;23135;51.078;12.108;2022-10-16T02:22:15;1.55;;;0.00;;
37241;SDS011;23135;51.078;12.108;2022-10-16T02:25:22;1.45;;;0.05;;
37241;SDS011;23135;51.078;12.108;2022-10-16T02:30:34;3.05;;;0.00;;
37241;SDS011;23135;51.078;12.108;2022-10-16T02:33:05;0.00;;;0.00;;
37241;SDS011;23135;51.078;12.108;2022-10-16T02:35:34;3.05;;;0.00;;
37241;SDS011;23135;51.078;12.108;2022-10-16T02:38:02;1.13;;;0.00;;
37241;SDS011;23135;51.078;12.108;2022-10-16T02:40:28;2.05;;;0.00;;
37241;SDS011;23135;51.078;12.108;2022-10-16T02:42:54;6.43;;;0.00;;
37241;SDS011;23135;51.078;12.108;2022-10-16T02:45:20;0.10;;;0.10;;
37241;SDS011;23135;51.078;12.108;2022-10-16T02:47:47;1.67;;;0.00;;
37241;SDS011;23135;51.078;12.108;2022-10-16T02:50:12;2.28;;;0.00;;
37241;SDS011;23135;51.078;12.108;2022-10-16T02:52:38;3.15;;;0.00;;
37241;SDS011;23135;51.078;12.108;2022-10-16T02:55:04;0.00;;;0.00;;
37241;SDS011;23135;51.078;12.108;2022-10-16T02:57:30;0.60;;;0.03;;
37241;SDS011;23135;51.078;12.108;2022-10-16T02:59:56;0.00;;;0.00;;
37241;SDS011;23135;51.078;12.108;2022-10-16T03:02:22;3.60;;;1.08;;
37241;SDS011;23135;51.078;12.108;2022-10-16T03:04:48;2.22;;;0.00;;
37241;SDS011;23135;51.078;12.108;2022-10-16T03:07:13;1.33;;;0.00;;
37241;SDS011;23135;51.078;12.108;2022-10-16T03:09:39;0.03;;;0.00;;
37241;SDS011;23135;51.078;12.108;2022-10-16T03:12:05;0.30;;;0.00;;
37241;SDS011;23135;51.078;12.108;2022-10-16T03:14:30;0.00;;;0.00;;
37241;SDS011;23135;51.078;12.108;2022-10-16T03:16:56;3.33;;;0.00;;
37241;SDS011;23135;51.078;12.108;2022-10-16T03:19:22;0.00;;;0.00;;
37241;SDS011;23135;51.078;12.108;2022-10-16T03:21:47;7.82;;;0.30;;
37241;SDS011;23135;51.078;12.108;2022-10-16T03:24:13;1.02;;;0.00;;
37241;SDS011;23135;51.078;12.108;2022-10-16T03:26:39;0.38;;;0.00;;
37241;SDS011;23135;51.078;12.108;2022-10-16T03:29:04;0.85;;;0.00;;
37241;SDS011;23135;51.078;12.108;2022-10-16T03:31:31;4.65;;;0.00;;
37241;SDS011;23135;51.078;12.108;2022-10-16T03:33:57;0.00;;;0.00;;
37241;SDS011;23135;51.078;12.108;2022-10-16T03:36:23;0.10;;;0.00;;
37241;SDS011;23135;51.078;12.108;2022-10-16T03:38:48;0.15;;;0.00;;
37241;SDS011;23135;51.078;12.108;2022-10-16T03:41:14;2.47;;;0.25;;
37241;SDS011;23135;51.078;12.108;2022-10-16T03:43:40;2.60;;;0.00;;
37241;SDS011;23135;51.078;12.108;2022-10-16T03:46:05;0.30;;;0.10;;
37241;SDS011;23135;51.078;12.108;2022-10-16T03:48:31;3.80;;;0.00;;
37241;SDS011;23135;51.078;12.108;2022-10-16T03:50:57;0.43;;;0.00;;
37241;SDS011;23135;51.078;12.108;2022-10-16T03:53:23;0.68;;;0.25;;
37241;SDS011;23135;51.078;12.108;2022-10-16T03:55:48;0.45;;;0.00;;
37241;SDS011;23135;51.078;12.108;2022-10-16T03:58:14;0.45;;;0.08;;
37241;SDS011;23135;51.078;12.108;2022-10-16T04:00:43;0.63;;;0.00;;
37241;SDS011;23135;51.078;12.108;2022-10-16T04:03:12;0.10;;;0.00;;
37241;SDS011;23135;51.078;12.108;2022-10-16T04:05:38;0.30;;;0.00;;
37241;SDS011;23135;51.078;12.108;2022-10-16T04:08:04;0.00;;;0.00;;
37241;SDS011;23135;51.078;12.108;2022-10-16T04:10:30;3.22;;;0.63;;
37241;SDS011;23135;51.078;12.108;2022-10-16T04:12:56;0.95;;;0.00;;
37241;SDS011;23135;51.078;12.108;2022-10-16T04:15:25;4.88;;;0.55;;
37241;SDS011;23135;51.078;12.108;2022-10-16T04:17:51;0.95;;;0.00;;
37241;SDS011;23135;51.078;12.108;2022-10-16T04:20:17;0.00;;;0.00;;
37241;SDS011;23135;51.078;12.108;2022-10-16T04:22:43;1.40;;;0.30;;
37241;SDS011;23135;51.078;12.108;2022-10-16T04:25:09;0.93;;;0.00;;
37241;SDS011;23135;51.078;12.108;2022-10-16T04:27:36;1.35;;;0.00;;
37241;SDS011;23135;51.078;12.108;2022-10-16T04:30:03;0.98;;;0.00;;
37241;SDS011;23135;51.078;12.108;2022-10-16T04:32:29;3.40;;;0.00;;
37241;SDS011;23135;51.078;12.108;2022-10-16T04:34:54;2.90;;;0.00;;
37241;SDS011;23135;51.078;12.108;2022-10-16T04:37:23;0.75;;;0.00;;
37241;SDS011;23135;51.078;12.108;2022-10-16T04:39:50;1.35;;;0.10;;
37241;SDS011;23135;51.078;12.108;2022-10-16T04:42:16;9.50;;;0.13;;
37241;SDS011;23135;51.078;12.108;2022-10-16T04:44:41;1.95;;;0.00;;
37241;SDS011;23135;51.078;12.108;2022-10-16T04:47:07;0.55;;;0.10;;
37241;SDS011;23135;51.078;12.108;2022-10-16T04:49:33;3.70;;;0.08;;
37241;SDS011;23135;51.078;12.108;2022-10-16T04:51:58;0.00;;;0.00;;
37241;SDS011;23135;51.078;12.108;2022-10-16T04:54:24;2.50;;;0.00;;
37241;SDS011;23135;51.078;12.108;2022-10-16T04:56:50;0.13;;;0.00;;
37241;SDS011;23135;51.078;12.108;2022-10-16T04:59:17;0.10;;;0.00;;
37241;SDS011;23135;51.078;12.108;2022-10-16T05:01:43;0.17;;;0.00;;
37241;SDS011;23135;51.078;12.108;2022-10-16T05:04:09;0.00;;;0.00;;
37241;SDS011;23135;51.078;12.108;2022-10-16T05:06:35;0.00;;;0.00;;
37241;SDS011;23135;51.078;12.108;2022-10-16T05:09:01;0.10;;;0.10;;
37241;SDS011;23135;51.078;12.108;2022-10-16T05:11:27;1.65;;;0.00;;
37241;SDS011;23135;51.078;12.108;2022-10-16T05:13:52;0.00;;;0.00;;
37241;SDS011;23135;51.078;12.108;2022-10-16T05:16:18;0.03;;;0.03;;
37241;SDS011;23135;51.078;12.108;2022-10-16T05:18:43;1.10;;;0.10;;
37241;SDS011;23135;51.078;12.108;2022-10-16T05:21:09;3.35;;;0.00;;
37241;SDS011;23135;51.078;12.108;2022-10-16T05:23:35;0.50;;;0.00;;
37241;SDS011;23135;51.078;12.108;2022-10-16T05:26:00;5.22;;;1.35;;
37241;SDS011;23135;51.078;12.108;2022-10-16T05:28:27;0.55;;;0.40;;
37241;SDS011;23135;51.078;12.108;2022-10-16T05:30:53;1.10;;;0.00;;
37241;SDS011;23135;51.078;12.108;2022-10-16T05:33:21;0.13;;;0.00;;
37241;SDS011;23135;51.078;12.108;2022-10-16T05:35:48;2.08;;;0.00;;
37241;SDS011;23135;51.078;12.108;2022-10-16T05:38:27;0.75;;;0.00;;
37241;SDS011;23135;51.078;12.108;2022-10-16T05:40:52;0.00;;;0.00;;
37241;SDS011;23135;51.078;12.108;2022-10-16T05:43:18;0.00;;;0.00;;
37241;SDS011;23135;51.078;12.108;2022-10-16T05:45:45;0.20;;;0.00;;
37241;SDS011;23135;51.078;12.108;2022-10-16T05:48:19;0.35;;;0.00;;
37241;SDS011;23135;51.078;12.108;2022-10-16T05:50:44;1.55;;;0.00;;
37241;SDS011;23135;51.078;12.108;2022-10-16T05:53:10;0.13;;;0.00;;
37241;SDS011;23135;51.078;12.108;2022-10-16T05:55:35;0.93;;;0.10;;
37241;SDS011;23135;51.078;12.108;2022-10-16T05:58:01;0.93;;;0.00;;
37241;SDS011;23135;51.078;12.108;2022-10-16T06:00:27;0.00;;;0.00;;
37241;SDS011;23135;51.078;12.108;2022-10-16T06:02:53;2.28;;;0.00;;
37241;SDS011;23135;51.078;12.108;2022-10-16T06:05:18;1.65;;;0.00;;
37241;SDS011;23135;51.078;12.108;2022-10-16T06:07:44;0.08;;;0.08;;
37241;SDS011;23135;51.078;12.108;2022-10-16T06:10:10;0.00;;;0.00;;
37241;SDS011;23135;51.078;12.108;2022-10-16T06:12:35;0.13;;;0.00;;
37241;SDS011;23135;51.078;12.108;2022-10-16T06:15:01;1.55;;;0.00;;
37241;SDS011;23135;51.078;12.108;2022-10-16T06:17:27;1.55;;;0.60;;
37241;SDS011;23135;51.078;12.108;2022-10-16T06:19:53;1.55;;;0.00;;
37241;SDS011;23135;51.078;12.108;2022-10-16T06:22:18;0.57;;;0.05;;
37241;SDS011;23135;51.078;12.108;2022-10-16T06:24:44;0.40;;;0.00;;
37241;SDS011;23135;51.078;12.108;2022-10-16T06:27:11;0.63;;;0.00;;
37241;SDS011;23135;51.078;12.108;2022-10-16T06:29:36;1.23;;;0.00;;
37241;SDS011;23135;51.078;12.108;2022-10-16T06:32:02;0.10;;;0.00;;
37241;SDS011;23135;51.078;12.108;2022-10-16T06:34:28;0.00;;;0.00;;
37241;SDS011;23135;51.078;12.108;2022-10-16T06:36:53;5.10;;;0.00;;
37241;SDS011;23135;51.078;12.108;2022-10-16T06:39:20;1.58;;;0.00;;
37241;SDS011;23135;51.078;12.108;2022-10-16T06:41:45;0.73;;;0.00;;
37241;SDS011;23135;51.078;12.108;2022-10-16T06:44:11;0.20;;;0.20;;
37241;SDS011;23135;51.078;12.108;2022-10-16T06:46:37;0.17;;;0.00;;
37241;SDS011;23135;51.078;12.108;2022-10-16T06:49:02;1.23;;;0.00;;
37241;SDS011;23135;51.078;12.108;2022-10-16T06:51:28;4.68;;;0.00;;
37241;SDS011;23135;51.078;12.108;2022-10-16T06:53:55;0.10;;;0.00;;
37241;SDS011;23135;51.078;12.108;2022-10-16T06:56:25;2.85;;;0.10;;
37241;SDS011;23135;51.078;12.108;2022-10-16T06:58:51;0.00;;;0.00;;
37241;SDS011;23135;51.078;12.108;2022-10-16T07:01:18;0.35;;;0.00;;
37241;SDS011;23135;51.078;12.108;2022-10-16T07:03:46;1.92;;;0.00;;
37241;SDS011;23135;51.078;12.108;2022-10-16T07:06:17;0.03;;;0.03;;
37241;SDS011;23135;51.078;12.108;2022-10-16T07:08:45;1.27;;;0.00;;
37241;SDS011;23135;51.078;12.108;2022-10-16T07:11:12;0.88;;;0.22;;
37241;SDS011;23135;51.078;12.108;2022-10-16T07:13:40;4.32;;;0.00;;
37241;SDS011;23135;51.078;12.108;2022-10-16T07:16:11;2.03;;;0.00;;
37241;SDS011;23135;51.078;12.108;2022-10-16T07:18:38;0.35;;;0.25;;
37241;SDS011;23135;51.078;12.108;2022-10-16T07:21:12;0.30;;;0.00;;
37241;SDS011;23135;51.078;12.108;2022-10-16T07:23:39;0.20;;;0.20;;
37241;SDS011;23135;51.078;12.108;2022-10-16T07:26:05;2.85;;;0.00;;
37241;SDS011;23135;51.078;12.108;2022-10-16T07:28:31;0.00;;;0.00;;
37241;SDS011;23135;51.078;12.108;2022-10-16T07:31:02;4.05;;;0.00;;
37241;SDS011;23135;51.078;12.108;2022-10-16T07:33:29;0.00;;;0.00;;
37241;SDS011;23135;51.078;12.108;2022-10-16T07:35:55;1.15;;;0.00;;
37241;SDS011;23135;51.078;12.108;2022-10-16T07:38:21;0.47;;;0.00;;
37241;SDS011;23135;51.078;12.108;2022-10-16T07:40:47;2.10;;;0.00;;
37241;SDS011;23135;51.078;12.108;2022-10-16T07:43:13;0.95;;;0.00;;
37241;SDS011;23135;51.078;12.108;2022-10-16T07:45:46;0.30;;;0.00;;
37241;SDS011;23135;51.078;12.108;2022-10-16T07:48:13;0.00;;;0.00;;
37241;SDS011;23135;51.078;12.108;2022-10-16T07:50:39;0.52;;;0.00;;
37241;SDS011;23135;51.078;12.108;2022-10-16T07:53:05;0.38;;;0.10;;
37241;SDS011;23135;51.078;12.108;2022-10-16T07:55:31;0.00;;;0.00;;
37241;SDS011;23135;51.078;12.108;2022-10-16T07:57:56;0.03;;;0.00;;
37241;SDS011;23135;51.078;12.108;2022-10-16T08:00:22;0.00;;;0.00;;
37241;SDS011;23135;51.078;12.108;2022-10-16T08:02:47;1.98;;;0.10;;
37241;SDS011;23135;51.078;12.108;2022-10-16T08:05:13;0.52;;;0.00;;
37241;SDS011;23135;51.078;12.108;2022-10-16T08:07:39;0.80;;;0.00;;
37241;SDS011;23135;51.078;12.108;2022-10-16T08:10:04;0.00;;;0.00;;
37241;SDS011;23135;51.078;12.108;2022-10-16T08:12:30;0.05;;;0.00;;
37241;SDS011;23135;51.078;12.108;2022-10-16T08:14:56;0.20;;;0.00;;
37241;SDS011;23135;51.078;12.108;2022-10-16T08:17:21;0.00;;;0.00;;
37241;SDS011;23135;51.078;12.108;2022-10-16T08:19:47;0.00;;;0.00;;
37241;SDS011;23135;51.078;12.108;2022-10-16T08:22:13;0.00;;;0.00;;
37241;SDS011;23135;51.078;12.108;2022-10-16T08:24:39;1.25;;;0.00;;
37241;SDS011;23135;51.078;12.108;2022-10-16T08:27:05;0.00;;;0.00;;
37241;SDS011;23135;51.078;12.108;2022-10-16T08:29:31;0.17;;;0.10;;
37241;SDS011;23135;51.078;12.108;2022-10-16T08:31:57;1.65;;;0.65;;
37241;SDS011;23135;51.078;12.108;2022-10-16T08:34:22;0.00;;;0.00;;
37241;SDS011;23135;51.078;12.108;2022-10-16T08:36:48;1.35;;;0.55;;
37241;SDS011;23135;51.078;12.108;2022-10-16T08:39:13;2.35;;;0.00;;
37241;SDS011;23135;51.078;12.108;2022-10-16T08:50:26;1.80;;;0.00;;
37241;SDS011;23135;51.078;12.108;2022-10-16T08:52:54;0.10;;;0.00;;
37241;SDS011;23135;51.078;12.108;2022-10-16T08:55:31;0.00;;;0.00;;
37241;SDS011;23135;51.078;12.108;2022-10-16T08:58:14;0.00;;;0.00;;
37241;SDS011;23135;51.078;12.108;2022-10-16T09:00:41;0.60;;;0.00;;
37241;SDS011;23135;51.078;12.108;2022-10-16T09:03:16;0.00;;;0.00;;
37241;SDS011;23135;51.078;12.108;2022-10-16T09:16:51;1.85;;;0.00;;
37241;SDS011;23135;51.078;12.108;2022-10-16T09:22:10;1.85;;;0.00;;
37241;SDS011;23135;51.078;12.108;2022-10-16T09:24:40;1.65;;;0.30;;
37241;SDS011;23135;51.078;12.108;2022-10-16T09:27:12;1.85;;;0.00;;
37241;SDS011;23135;51.078;12.108;2022-10-16T09:29:39;0.98;;;0.00;;
37241;SDS011;23135;51.078;12.108;2022-10-16T09:32:17;0.10;;;0.00;;
37241;SDS011;23135;51.078;12.108;2022-10-16T09:34:48;1.75;;;0.00;;
37241;SDS011;23135;51.078;12.108;2022-10-16T09:37:18;1.60;;;0.00;;
37241;SDS011;23135;51.078;12.108;2022-10-16T09:39:49;1.17;;;0.00;;
37241;SDS011;23135;51.078;12.108;2022-10-16T09:42:37;1.13;;;0.00;;
37241;SDS011;23135;51.078;12.108;2022-10-16T09:45:02;0.40;;;0.00;;
37241;SDS011;23135;51.078;12.108;2022-10-16T09:47:29;0.00;;;0.00;;
37241;SDS011;23135;51.078;12.108;2022-10-16T09:49:59;0.15;;;0.00;;
37241;SDS011;23135;51.078;12.108;2022-10-16T09:52:31;1.58;;;0.00;;
37241;SDS011;23135;51.078;12.108;2022-10-16T09:54:59;0.75;;;0.20;;
37241;SDS011;23135;51.078;12.108;2022-10-16T09:57:26;0.90;;;0.00;;
37241;SDS011;23135;51.078;12.108;2022-10-16T09:59:53;0.35;;;0.00;;
37241;SDS011;23135;51.078;12.108;2022-10-16T10:02:24;0.00;;;0.00;;
37241;SDS011;23135;51.078;12.108;2022-10-16T10:04:59;1.77;;;0.38;;
37241;SDS011;23135;51.078;12.108;2022-10-16T10:07:26;4.95;;;0.03;;
37241;SDS011;23135;51.078;12.108;2022-10-16T10:09:58;0.47;;;0.00;;
37241;SDS011;23135;51.078;12.108;2022-10-16T10:12:28;2.38;;;0.00;;
37241;SDS011;23135;51.078;12.108;2022-10-16T10:15:10;0.00;;;0.00;;
37241;SDS011;23135;51.078;12.108;2022-10-16T10:20:41;0.60;;;0.00;;
37241;SDS011;23135;51.078;12.108;2022-10-16T10:23:25;1.35;;;0.00;;
37241;SDS011;23135;51.078;12.108;2022-10-16T10:31:36;0.47;;;0.00;;
37241;SDS011;23135;51.078;12.108;2022-10-16T10:37:33;0.73;;;0.15;;
37241;SDS011;23135;51.078;12.108;2022-10-16T10:45:54;0.00;;;0.00;;
37241;SDS011;23135;51.078;12.108;2022-10-16T10:51:20;0.30;;;0.00;;
37241;SDS011;23135;51.078;12.108;2022-10-16T10:54:13;4.18;;;0.15;;
37241;SDS011;23135;51.078;12.108;2022-10-16T10:57:02;3.70;;;0.00;;
37241;SDS011;23135;51.078;12.108;2022-10-16T11:02:26;0.45;;;0.00;;
37241;SDS011;23135;51.078;12.108;2022-10-16T11:16:22;3.45;;;0.00;;
37241;SDS011;23135;51.078;12.108;2022-10-16T11:21:36;0.00;;;0.00;;
37241;SDS011;23135;51.078;12.108;2022-10-16T11:24:39;1.85;;;0.00;;
37241;SDS011;23135;51.078;12.108;2022-10-16T11:27:08;0.10;;;0.00;;
37241;SDS011;23135;51.078;12.108;2022-10-16T11:29:39;0.60;;;0.00;;
37241;SDS011;23135;51.078;12.108;2022-10-16T11:32:34;0.00;;;0.00;;
37241;SDS011;23135;51.078;12.108;2022-10-16T11:35:13;0.05;;;0.00;;
37241;SDS011;23135;51.078;12.108;2022-10-16T11:37:44;0.00;;;0.00;;
37241;SDS011;23135;51.078;12.108;2022-10-16T11:40:30;0.10;;;0.00;;
37241;SDS011;23135;51.078;12.108;2022-10-16T11:43:02;0.20;;;0.00;;
37241;SDS011;23135;51.078;12.108;2022-10-16T11:45:42;2.13;;;0.00;;
37241;SDS011;23135;51.078;12.108;2022-10-16T11:50:56;2.28;;;0.00;;
37241;SDS011;23135;51.078;12.108;2022-10-16T11:56:06;0.70;;;0.00;;
37241;SDS011;23135;51.078;12.108;2022-10-16T11:58:37;0.43;;;0.00;;
37241;SDS011;23135;51.078;12.108;2022-10-16T12:01:15;0.15;;;0.00;;
37241;SDS011;23135;51.078;12.108;2022-10-16T12:04:10;0.03;;;0.00;;
37241;SDS011;23135;51.078;12.108;2022-10-16T12:06:52;0.25;;;0.00;;
37241;SDS011;23135;51.078;12.108;2022-10-16T12:09:26;0.20;;;0.00;;
37241;SDS011;23135;51.078;12.108;2022-10-16T12:11:56;1.27;;;0.00;;
37241;SDS011;23135;51.078;12.108;2022-10-16T12:14:32;0.38;;;0.00;;
37241;SDS011;23135;51.078;12.108;2022-10-16T12:17:01;0.10;;;0.00;;
37241;SDS011;23135;51.078;12.108;2022-10-16T12:19:57;0.10;;;0.00;;
37241;SDS011;23135;51.078;12.108;2022-10-16T12:25:21;1.83;;;0.00;;
37241;SDS011;23135;51.078;12.108;2022-10-16T12:30:26;0.20;;;0.00;;
37241;SDS011;23135;51.078;12.108;2022-10-16T12:32:55;0.20;;;0.00;;
37241;SDS011;23135;51.078;12.108;2022-10-16T12:35:26;4.13;;;0.00;;
37241;SDS011;23135;51.078;12.108;2022-10-16T12:38:03;1.67;;;0.00;;
37241;SDS011;23135;51.078;12.108;2022-10-16T12:40:34;0.30;;;0.05;;
37241;SDS011;23135;51.078;12.108;2022-10-16T12:45:45;3.90;;;0.00;;
37241;SDS011;23135;51.078;12.108;2022-10-16T12:48:21;0.32;;;0.00;;
37241;SDS011;23135;51.078;12.108;2022-10-16T12:50:47;0.75;;;0.00;;
37241;SDS011;23135;51.078;12.108;2022-10-16T12:53:20;0.10;;;0.08;;
37241;SDS011;23135;51.078;12.108;2022-10-16T12:55:57;2.72;;;0.00;;
37241;SDS011;23135;51.078;12.108;2022-10-16T12:58:34;0.00;;;0.00;;
37241;SDS011;23135;51.078;12.108;2022-10-16T13:01:18;0.80;;;0.80;;
37241;SDS011;23135;51.078;12.108;2022-10-16T13:12:54;0.08;;;0.00;;
37241;SDS011;23135;51.078;12.108;2022-10-16T13:18:15;0.10;;;0.00;;
37241;SDS011;23135;51.078;12.108;2022-10-16T13:21:11;2.30;;;0.63;;
37241;SDS011;23135;51.078;12.108;2022-10-16T13:29:20;0.00;;;0.00;;
37241;SDS011;23135;51.078;12.108;2022-10-16T13:31:46;0.38;;;0.00;;
37241;SDS011;23135;51.078;12.108;2022-10-16T13:34:19;0.25;;;0.00;;
37241;SDS011;23135;51.078;12.108;2022-10-16T13:36:48;3.10;;;0.00;;
37241;SDS011;23135;51.078;12.108;2022-10-16T13:39:20;2.05;;;0.00;;
37241;SDS011;23135;51.078;12.108;2022-10-16T13:42:00;1.60;;;0.00;;
37241;SDS011;23135;51.078;12.108;2022-10-16T13:44:28;0.40;;;0.00;;
37241;SDS011;23135;51.078;12.108;2022-10-16T13:49:26;0.10;;;0.00;;
37241;SDS011;23135;51.078;12.108;2022-10-16T13:51:56;0.65;;;0.10;;
37241;SDS011;23135;51.078;12.108;2022-10-16T13:54:23;0.80;;;0.00;;
37241;SDS011;23135;51.078;12.108;2022-10-16T13:56:50;0.30;;;0.00;;
37241;SDS011;23135;51.078;12.108;2022-10-16T13:59:26;0.00;;;0.00;;
37241;SDS011;23135;51.078;12.108;2022-10-16T14:04:25;0.10;;;0.00;;
37241;SDS011;23135;51.078;12.108;2022-10-16T14:06:56;1.30;;;0.00;;
37241;SDS011;23135;51.078;12.108;2022-10-16T14:11:51;1.75;;;0.00;;
37241;SDS011;23135;51.078;12.108;2022-10-16T14:14:24;0.80;;;0.00;;
37241;SDS011;23135;51.078;12.108;2022-10-16T14:16:55;1.40;;;0.00;;
37241;SDS011;23135;51.078;12.108;2022-10-16T14:19:22;0.35;;;0.00;;
37241;SDS011;23135;51.078;12.108;2022-10-16T14:21:53;1.10;;;0.00;;
37241;SDS011;23135;51.078;12.108;2022-10-16T14:24:26;0.00;;;0.00;;
37241;SDS011;23135;51.078;12.108;2022-10-16T14:26:56;0.17;;;0.00;;
37241;SDS011;23135;51.078;12.108;2022-10-16T14:29:22;0.05;;;0.00;;
37241;SDS011;23135;51.078;12.108;2022-10-16T14:34:23;0.10;;;0.00;;
37241;SDS011;23135;51.078;12.108;2022-10-16T14:36:58;0.15;;;0.00;;
37241;SDS011;23135;51.078;12.108;2022-10-16T14:39:27;0.10;;;0.00;;
37241;SDS011;23135;51.078;12.108;2022-10-16T14:41:55;0.32;;;0.00;;
37241;SDS011;23135;51.078;12.108;2022-10-16T14:44:23;1.55;;;0.00;;
37241;SDS011;23135;51.078;12.108;2022-10-16T14:47:09;0.17;;;0.00;;
37241;SDS011;23135;51.078;12.108;2022-10-16T14:49:38;0.00;;;0.00;;
37241;SDS011;23135;51.078;12.108;2022-10-16T14:52:10;0.32;;;0.00;;
37241;SDS011;23135;51.078;12.108;2022-10-16T14:54:37;0.63;;;0.32;;
37241;SDS011;23135;51.078;12.108;2022-10-16T14:57:03;2.35;;;0.00;;
37241;SDS011;23135;51.078;12.108;2022-10-16T14:59:33;0.20;;;0.20;;
37241;SDS011;23135;51.078;12.108;2022-10-16T15:04:45;0.30;;;0.00;;
37241;SDS011;23135;51.078;12.108;2022-10-16T15:07:11;1.55;;;0.00;;
37241;SDS011;23135;51.078;12.108;2022-10-16T15:09:37;0.00;;;0.00;;
37241;SDS011;23135;51.078;12.108;2022-10-16T15:12:03;0.00;;;0.00;;
37241;SDS011;23135;51.078;12.108;2022-10-16T15:14:29;0.10;;;0.00;;
37241;SDS011;23135;51.078;12.108;2022-10-16T15:16:54;0.22;;;0.00;;
37241;SDS011;23135;51.078;12.108;2022-10-16T15:19:20;6.28;;;0.00;;
37241;SDS011;23135;51.078;12.108;2022-10-16T15:21:45;1.10;;;0.05;;
37241;SDS011;23135;51.078;12.108;2022-10-16T15:24:12;2.55;;;0.15;;
37241;SDS011;23135;51.078;12.108;2022-10-16T15:26:38;0.73;;;0.00;;
37241;SDS011;23135;51.078;12.108;2022-10-16T15:29:04;0.30;;;0.00;;
37241;SDS011;23135;51.078;12.108;2022-10-16T15:31:31;0.05;;;0.00;;
37241;SDS011;23135;51.078;12.108;2022-10-16T15:33:56;0.85;;;0.00;;
37241;SDS011;23135;51.078;12.108;2022-10-16T15:36:34;0.10;;;0.00;;
37241;SDS011;23135;51.078;12.108;2022-10-16T15:39:05;1.80;;;0.00;;
37241;SDS011;23135;51.078;12.108;2022-10-16T15:41:39;0.40;;;0.00;;
37241;SDS011;23135;51.078;12.108;2022-10-16T15:44:04;4.65;;;0.00;;
37241;SDS011;23135;51.078;12.108;2022-10-16T15:46:30;0.00;;;0.00;;
37241;SDS011;23135;51.078;12.108;2022-10-16T15:48:58;0.00;;;0.00;;
37241;SDS011;23135;51.078;12.108;2022-10-16T15:51:24;0.00;;;0.00;;
37241;SDS011;23135;51.078;12.108;2022-10-16T15:53:54;0.28;;;0.00;;
37241;SDS011;23135;51.078;12.108;2022-10-16T15:56:23;0.32;;;0.05;;
37241;SDS011;23135;51.078;12.108;2022-10-16T15:58:50;0.65;;;0.10;;
37241;SDS011;23135;51.078;12.108;2022-10-16T16:01:17;1.85;;;0.00;;
37241;SDS011;23135;51.078;12.108;2022-10-16T16:03:42;3.20;;;0.00;;
37241;SDS011;23135;51.078;12.108;2022-10-16T16:06:10;2.22;;;0.10;;
37241;SDS011;23135;51.078;12.108;2022-10-16T16:08:36;13.00;;;1.15;;
37241;SDS011;23135;51.078;12.108;2022-10-16T16:11:04;8.05;;;1.35;;
37241;SDS011;23135;51.078;12.108;2022-10-16T16:13:34;6.60;;;1.05;;
37241;SDS011;23135;51.078;12.108;2022-10-16T16:16:04;16.98;;;2.28;;
37241;SDS011;23135;51.078;12.108;2022-10-16T16:20:59;12.00;;;3.55;;
37241;SDS011;23135;51.078;12.108;2022-10-16T16:23:25;6.90;;;2.15;;
37241;SDS011;23135;51.078;12.108;2022-10-16T16:28:35;18.70;;;9.45;;
37241;SDS011;23135;51.078;12.108;2022-10-16T16:31:00;12.85;;;7.18;;
37241;SDS011;23135;51.078;12.108;2022-10-16T16:33:26;19.13;;;15.18;;
37241;SDS011;23135;51.078;12.108;2022-10-16T16:35:55;55.53;;;45.90;;
37241;SDS011;23135;51.078;12.108;2022-10-16T16:38:22;38.40;;;28.30;;
37241;SDS011;23135;51.078;12.108;2022-10-16T16:40:48;27.48;;;23.98;;
37241;SDS011;23135;51.078;12.108;2022-10-16T16:43:13;11.05;;;8.75;;
37241;SDS011;23135;51.078;12.108;2022-10-16T16:45:39;3.65;;;2.67;;
37241;SDS011;23135;51.078;12.108;2022-10-16T16:48:04;1.63;;;0.65;;